Time;durP1;ratioP1;P1;durP2;ratioP2;P2;SDS_P1;SDS_P2;PMS_P1;PMS_P2;Temp;Humidity;BMP_temperature;BMP_pressure;BME280_temperature;BME280_humidity;BME280_pressure;Samples;Min_cycle;Max_cycle;Signal;HPM_P1;HPM_P2
2023/09/03 00:01:37;;;;;;;5.22;0.38;;;;;;;12.21;72.54;101560.84;5041482;28;20049;-81
2023/09/03 00:04:04;;;;;;;0.85;0.30;;;;;;;12.24;72.78;101558.19;5039690;28;20179;-81
2023/09/03 00:06:31;;;;;;;2.53;0.30;;;;;;;12.03;72.80;101527.91;5051181;28;20056;-81
2023/09/03 00:08:59;;;;;;;2.08;0.40;;;;;;;12.21;72.68;101566.97;5045458;28;20056;-81
2023/09/03 00:11:26;;;;;;;3.63;0.30;;;;;;;12.17;72.71;101565.28;5041325;28;20064;-81
2023/09/03 00:13:54;;;;;;;3.50;0.30;;;;;;;12.10;72.80;101559.25;5046916;28;20059;-81
2023/09/03 00:16:20;;;;;;;2.72;0.38;;;;;;;12.15;72.94;101567.91;5043891;28;20848;-81
2023/09/03 00:18:48;;;;;;;0.47;0.32;;;;;;;12.12;72.87;101567.06;5044469;28;20041;-81
2023/09/03 00:21:15;;;;;;;1.20;0.32;;;;;;;12.03;73.03;101562.81;5044749;28;20053;-81
2023/09/03 00:23:42;;;;;;;5.00;0.30;;;;;;;12.11;72.67;101575.81;5035679;28;20053;-76
2023/09/03 00:26:17;;;;;;;6.05;0.43;;;;;;;12.09;72.72;101577.59;5038323;28;20051;-76
2023/09/03 00:28:44;;;;;;;1.38;0.30;;;;;;;12.07;72.89;101579.38;5037393;28;20061;-76
2023/09/03 00:31:11;;;;;;;0.40;0.30;;;;;;;12.06;73.01;101577.63;5033813;28;20438;-77
2023/09/03 00:33:38;;;;;;;1.85;0.30;;;;;;;12.05;73.11;101578.53;5039069;28;20045;-77
2023/09/03 00:36:08;;;;;;;2.67;0.40;;;;;;;12.03;73.13;101577.66;5039005;28;20049;-76
2023/09/03 00:38:35;;;;;;;3.17;0.40;;;;;;;11.99;73.15;101575.97;5038673;28;20073;-77
2023/09/03 00:41:04;;;;;;;0.60;0.40;;;;;;;11.99;73.47;101570.75;5039917;28;20114;-77
2023/09/03 00:43:33;;;;;;;0.40;0.30;;;;;;;11.98;73.24;101564.66;5038258;28;20041;-77
2023/09/03 00:46:04;;;;;;;0.30;0.30;;;;;;;11.95;73.31;101564.66;5036884;28;22066;-77
2023/09/03 00:48:31;;;;;;;3.33;0.30;;;;;;;11.96;73.34;101573.41;5034899;28;20417;-77
2023/09/03 00:51:07;;;;;;;0.32;0.30;;;;;;;11.93;73.47;101567.31;5041227;28;20051;-77
2023/09/03 00:53:36;;;;;;;5.93;0.30;;;;;;;11.92;73.51;101564.69;5040766;28;20059;-76
2023/09/03 00:56:03;;;;;;;5.63;0.50;;;;;;;11.91;73.51;101570.81;5036504;28;20049;-77
2023/09/03 00:58:30;;;;;;;0.73;0.40;;;;;;;11.89;73.43;101576.06;5031436;28;20053;-77
2023/09/03 01:00:59;;;;;;;2.15;0.40;;;;;;;11.87;73.37;101570.00;5036102;28;20127;-77
2023/09/03 01:03:27;;;;;;;1.65;0.30;;;;;;;11.87;73.66;101577.00;5039692;28;20037;-76
2023/09/03 01:05:54;;;;;;;0.75;0.75;;;;;;;11.85;73.68;101571.75;5039392;28;20060;-77
2023/09/03 01:08:21;;;;;;;4.32;0.30;;;;;;;11.83;73.75;101576.09;5040066;28;20048;-76
2023/09/03 01:10:59;;;;;;;3.25;0.22;;;;;;;11.82;73.59;101571.75;5028940;28;20075;-77
2023/09/03 01:13:31;;;;;;;2.15;0.25;;;;;;;11.80;73.52;101570.91;5035528;28;20116;-76
2023/09/03 01:16:04;;;;;;;0.73;0.30;;;;;;;11.80;73.80;101575.28;5038935;28;20049;-77
2023/09/03 01:18:32;;;;;;;2.88;0.32;;;;;;;11.77;73.72;101568.31;5034086;28;20049;-77
2023/09/03 01:21:33;;;;;;;0.40;0.30;;;;;;;11.76;73.73;101574.44;5039375;28;20053;-77
2023/09/03 01:24:18;;;;;;;0.82;0.30;;;;;;;11.75;73.90;101572.69;5017955;28;20151;-77
2023/09/03 01:26:59;;;;;;;4.72;0.30;;;;;;;11.72;73.84;101572.72;5029614;28;20045;-76
2023/09/03 01:29:29;;;;;;;2.72;0.40;;;;;;;11.66;73.72;101565.81;5036292;28;20051;-76
2023/09/03 01:31:58;;;;;;;1.10;0.30;;;;;;;11.68;73.72;101568.41;5037300;28;20442;-76
2023/09/03 01:34:26;;;;;;;0.32;0.20;;;;;;;11.68;73.92;101571.03;5046679;28;20045;-81
2023/09/03 01:36:53;;;;;;;0.40;0.30;;;;;;;11.67;73.77;101571.94;5038459;28;20220;-81
2023/09/03 01:39:21;;;;;;;8.82;0.30;;;;;;;11.65;73.93;101568.44;5037261;28;21601;-81
2023/09/03 01:41:48;;;;;;;2.25;0.30;;;;;;;11.61;73.91;101567.63;5043101;28;20042;-81
2023/09/03 01:44:15;;;;;;;1.17;0.25;;;;;;;11.61;73.95;101564.13;5041905;28;20562;-81
2023/09/03 01:46:49;;;;;;;0.20;0.20;;;;;;;11.58;73.85;101566.75;5039801;28;20406;-81
2023/09/03 01:49:35;;;;;;;0.30;0.30;;;;;;;11.60;73.81;101572.84;5039138;28;20049;-81
2023/09/03 01:52:07;;;;;;;;;;;;;;;11.59;73.73;101582.47;5045177;28;20387;-81
2023/09/03 01:54:39;;;;;;;0.30;0.20;;;;;;;11.57;73.77;101580.75;5042473;28;19942;-81
2023/09/03 01:57:12;;;;;;;2.28;0.43;;;;;;;11.54;73.77;101578.16;5042787;28;20557;-80
2023/09/03 01:59:43;;;;;;;0.88;0.35;;;;;;;11.53;73.99;101577.28;5045806;28;20052;-81
2023/09/03 02:02:13;;;;;;;0.30;0.22;;;;;;;11.44;73.90;101570.41;5045649;28;20441;-81
2023/09/03 02:04:40;;;;;;;1.27;0.38;;;;;;;11.44;73.80;101567.78;5049041;28;20049;-81
2023/09/03 02:07:07;;;;;;;2.35;0.22;;;;;;;11.49;73.75;101579.03;5040942;28;20037;-81
2023/09/03 02:09:34;;;;;;;0.85;0.22;;;;;;;11.33;73.77;101556.56;5041202;28;20061;-80
2023/09/03 02:12:02;;;;;;;0.70;0.30;;;;;;;11.47;73.84;101588.69;5044960;28;20052;-80
2023/09/03 02:14:29;;;;;;;3.88;0.20;;;;;;;11.46;73.73;101596.53;5037601;28;20055;-77
2023/09/03 02:16:56;;;;;;;0.55;0.20;;;;;;;11.44;73.88;101604.41;5038059;28;20489;-77
2023/09/03 02:19:25;;;;;;;2.22;0.30;;;;;;;11.44;73.67;101608.75;5038861;28;20096;-77
2023/09/03 02:21:51;;;;;;;2.05;0.20;;;;;;;11.41;74.02;101609.66;5035998;28;20042;-78
2023/09/03 02:24:18;;;;;;;2.47;0.40;;;;;;;11.36;73.92;101605.38;5036226;28;20041;-74
2023/09/03 02:26:47;;;;;;;0.30;0.20;;;;;;;11.39;73.95;101606.19;5038595;28;20052;-74
2023/09/03 02:29:14;;;;;;;0.40;0.35;;;;;;;11.35;74.02;101609.69;5038813;28;20041;-75
2023/09/03 02:31:41;;;;;;;2.47;0.20;;;;;;;11.38;74.03;101624.50;5038457;28;20135;-74
2023/09/03 02:34:08;;;;;;;1.98;0.30;;;;;;;11.35;74.02;101620.16;5037835;28;20045;-74
2023/09/03 02:36:38;;;;;;;0.50;0.30;;;;;;;11.34;73.78;101626.28;5038066;28;20099;-74
2023/09/03 02:39:06;;;;;;;0.95;0.30;;;;;;;11.33;73.91;101629.78;5032372;28;20052;-75
2023/09/03 02:41:33;;;;;;;0.57;0.40;;;;;;;11.29;73.83;101630.69;5035245;28;20046;-77
2023/09/03 02:44:02;;;;;;;0.73;0.30;;;;;;;11.30;73.83;101631.53;5036968;28;20405;-80
2023/09/03 02:46:29;;;;;;;0.82;0.30;;;;;;;11.28;74.03;101633.31;5046069;28;20049;-78
2023/09/03 02:48:56;;;;;;;0.57;0.30;;;;;;;11.27;74.10;101645.53;5034528;28;20075;-78
2023/09/03 02:51:23;;;;;;;2.47;0.20;;;;;;;11.24;73.83;101646.44;5042437;28;20069;-78
2023/09/03 02:53:54;;;;;;;0.38;0.30;;;;;;;11.16;73.95;101640.38;5037719;28;20041;-81
2023/09/03 02:56:22;;;;;;;0.40;0.30;;;;;;;11.21;73.85;101638.59;5037171;28;20049;-81
2023/09/03 02:58:49;;;;;;;1.95;0.30;;;;;;;11.19;74.21;101639.50;5044602;28;20037;-79
2023/09/03 03:01:17;;;;;;;0.50;0.20;;;;;;;11.17;74.19;101636.88;5043242;28;20049;-78
2023/09/03 03:03:45;;;;;;;1.77;0.40;;;;;;;11.18;74.16;101635.13;5038458;28;20045;-78
2023/09/03 03:06:12;;;;;;;0.45;0.20;;;;;;;11.15;74.00;101635.13;5038508;28;20478;-79
2023/09/03 03:08:39;;;;;;;1.90;0.30;;;;;;;11.14;74.02;101641.25;5042634;28;20045;-78
2023/09/03 03:11:08;;;;;;;4.70;0.95;;;;;;;11.14;74.11;101638.66;5036526;28;20913;-78
2023/09/03 03:13:36;;;;;;;3.92;0.30;;;;;;;11.09;74.12;101637.81;5032800;28;20053;-78
2023/09/03 03:16:07;;;;;;;2.25;0.30;;;;;;;11.11;74.10;101651.75;5031900;28;20487;-78
2023/09/03 03:18:35;;;;;;;0.47;0.38;;;;;;;11.07;74.12;101644.78;5036624;28;20050;-80
2023/09/03 03:21:10;;;;;;;0.82;0.40;;;;;;;11.07;73.97;101655.25;5037464;28;20046;-81
2023/09/03 03:23:39;;;;;;;5.28;0.30;;;;;;;11.03;73.82;101660.50;5044103;28;20049;-80
2023/09/03 03:26:06;;;;;;;0.68;0.32;;;;;;;11.01;73.87;101672.72;5041621;28;20127;-80
2023/09/03 03:28:35;;;;;;;1.48;0.30;;;;;;;11.01;73.96;101670.13;5040459;28;20410;-81
2023/09/03 03:31:09;;;;;;;3.90;0.30;;;;;;;10.98;73.98;101666.63;5039250;28;20047;-80
2023/09/03 03:33:36;;;;;;;0.93;0.30;;;;;;;10.96;73.95;101671.88;5038031;28;20049;-80
2023/09/03 03:36:04;;;;;;;0.60;0.30;;;;;;;10.93;73.73;101664.06;5041920;28;20471;-80
2023/09/03 03:38:31;;;;;;;2.63;0.30;;;;;;;10.92;73.88;101662.28;5042224;28;20037;-81
2023/09/03 03:41:08;;;;;;;6.15;0.22;;;;;;;10.90;73.62;101656.22;5037174;28;20056;-80
2023/09/03 03:43:36;;;;;;;2.72;0.30;;;;;;;10.88;73.73;101660.59;5050146;28;20773;-80
2023/09/03 03:46:03;;;;;;;6.18;0.30;;;;;;;10.76;73.96;101645.00;5045690;28;20045;-79
2023/09/03 03:48:30;;;;;;;0.52;0.30;;;;;;;10.85;73.53;101662.38;5046113;28;20487;-81
2023/09/03 03:50:57;;;;;;;1.15;0.40;;;;;;;10.83;73.63;101659.75;5037807;28;20506;-81
2023/09/03 03:53:24;;;;;;;1.50;0.30;;;;;;;10.82;73.72;101662.38;5040547;28;20504;-75
2023/09/03 03:55:58;;;;;;;0.40;0.30;;;;;;;10.79;74.04;101666.75;5030708;28;20090;-76
2023/09/03 03:58:25;;;;;;;4.32;0.30;;;;;;;10.77;74.08;101667.63;5034821;28;20045;-73
2023/09/03 04:00:53;;;;;;;1.40;0.38;;;;;;;10.76;74.05;101663.28;5034767;28;20694;-74
2023/09/03 04:03:20;;;;;;;2.83;0.77;;;;;;;10.75;74.03;101666.75;5033754;28;20049;-74
2023/09/03 04:05:55;;;;;;;1.08;0.30;;;;;;;10.74;74.04;101670.25;5040353;28;20052;-74
2023/09/03 04:08:22;;;;;;;;;;;;;;;10.72;73.80;101669.38;5040411;28;20045;-76
2023/09/03 04:10:56;;;;;;;0.30;0.30;;;;;;;10.70;74.17;101672.03;5039931;28;19927;-76
2023/09/03 04:13:23;;;;;;;0.70;0.30;;;;;;;10.68;74.18;101676.38;5035100;28;20386;-75
2023/09/03 04:15:50;;;;;;;3.55;0.30;;;;;;;10.68;74.23;101685.97;5040693;28;20075;-75
2023/09/03 04:18:18;;;;;;;2.05;0.20;;;;;;;10.66;74.03;101680.72;5033507;28;20571;-75
2023/09/03 04:20:45;;;;;;;1.45;0.20;;;;;;;10.65;73.97;101688.59;5035949;28;20046;-73
2023/09/03 04:23:12;;;;;;;1.80;0.40;;;;;;;10.65;74.23;101704.28;5037545;28;20037;-74
2023/09/03 04:25:39;;;;;;;1.77;0.45;;;;;;;10.56;74.07;101681.66;5034778;28;20049;-74
2023/09/03 04:28:06;;;;;;;2.28;0.30;;;;;;;10.61;74.12;101682.47;5036874;28;20046;-73
2023/09/03 04:30:33;;;;;;;4.57;0.30;;;;;;;10.60;74.31;101672.06;5041121;28;20059;-74
2023/09/03 04:33:00;;;;;;;0.40;0.30;;;;;;;10.48;74.42;101652.94;5038090;28;20045;-77
2023/09/03 04:35:28;;;;;;;0.40;0.30;;;;;;;10.58;74.45;101672.91;5042128;28;20049;-77
2023/09/03 04:37:55;;;;;;;1.15;0.40;;;;;;;10.59;74.77;101676.41;5040585;28;20049;-76
2023/09/03 04:40:22;;;;;;;0.52;0.30;;;;;;;10.58;74.59;101662.47;5047571;28;20049;-79
2023/09/03 04:42:49;;;;;;;0.30;0.30;;;;;;;10.58;74.61;101657.25;5039383;28;20048;-79
2023/09/03 04:45:16;;;;;;;2.75;0.20;;;;;;;10.55;74.89;101657.25;5040318;28;20059;-78
2023/09/03 04:47:43;;;;;;;3.13;0.77;;;;;;;10.54;75.11;101652.06;5038452;28;20073;-79
2023/09/03 04:50:10;;;;;;;0.38;0.28;;;;;;;10.60;75.17;101654.63;5044156;28;20055;-79
2023/09/03 04:52:43;;;;;;;0.50;0.35;;;;;;;10.55;75.41;101635.50;5040822;28;20045;-79
2023/09/03 04:55:10;;;;;;;0.40;0.38;;;;;;;10.62;75.26;101652.03;5040745;28;20104;-79
2023/09/03 04:57:37;;;;;;;1.65;0.32;;;;;;;10.61;75.76;101663.34;5042891;28;20056;-79
2023/09/03 05:00:05;;;;;;;1.20;0.30;;;;;;;10.65;75.63;101678.13;5043552;28;20512;-79
2023/09/03 05:02:32;;;;;;;2.50;0.30;;;;;;;10.52;75.66;101659.88;5055737;28;20057;-80
2023/09/03 05:04:59;;;;;;;0.40;0.30;;;;;;;10.67;75.62;101692.03;5038888;28;20439;-78
2023/09/03 05:07:26;;;;;;;0.77;0.20;;;;;;;10.69;75.89;101700.75;5043454;28;20071;-79
2023/09/03 05:09:55;;;;;;;2.72;0.25;;;;;;;10.71;76.05;101704.25;5042919;28;20049;-78
2023/09/03 05:12:22;;;;;;;0.82;0.30;;;;;;;10.72;75.85;101696.38;5039698;28;20050;-78
2023/09/03 05:14:49;;;;;;;3.70;0.30;;;;;;;10.73;76.13;101698.13;5044962;28;20079;-78
2023/09/03 05:17:16;;;;;;;0.63;0.30;;;;;;;10.75;76.33;101705.94;5036137;28;20171;-78
2023/09/03 05:19:44;;;;;;;0.90;0.30;;;;;;;10.77;76.46;101705.06;5043583;28;20425;-79
2023/09/03 05:22:11;;;;;;;0.50;0.30;;;;;;;10.79;76.70;101718.16;5052487;28;20099;-78
2023/09/03 05:24:38;;;;;;;0.55;0.30;;;;;;;10.83;76.74;101724.22;5039178;28;20041;-79
2023/09/03 05:27:06;;;;;;;0.55;0.30;;;;;;;10.85;77.19;101718.13;5039933;28;20903;-79
2023/09/03 05:29:33;;;;;;;2.28;0.30;;;;;;;10.87;77.35;101719.00;5042503;28;20045;-79
2023/09/03 05:32:00;;;;;;;0.95;0.20;;;;;;;10.90;77.50;101716.34;5048910;28;20045;-79
2023/09/03 05:34:27;;;;;;;0.30;0.20;;;;;;;10.91;77.65;101714.59;5039845;28;20045;-79
2023/09/03 05:36:54;;;;;;;0.40;0.30;;;;;;;10.85;77.95;101704.19;5043229;28;20508;-77
2023/09/03 05:39:21;;;;;;;0.63;0.28;;;;;;;10.99;77.91;101726.75;5040091;28;20053;-78
2023/09/03 05:41:48;;;;;;;2.50;0.22;;;;;;;11.02;77.90;101721.50;5034721;28;20136;-78
2023/09/03 05:44:16;;;;;;;0.40;0.28;;;;;;;11.07;78.33;101720.59;5036513;28;20048;-75
2023/09/03 05:46:43;;;;;;;3.17;0.28;;;;;;;11.11;78.21;101722.34;5034320;28;20037;-74
2023/09/03 05:49:10;;;;;;;1.27;0.20;;;;;;;11.14;78.35;101717.09;5036743;28;20109;-74
2023/09/03 05:51:37;;;;;;;1.48;0.20;;;;;;;11.16;78.59;101718.81;5035990;28;20741;-75
2023/09/03 05:54:04;;;;;;;2.13;0.22;;;;;;;11.19;78.63;101728.41;5036530;28;20049;-75
2023/09/03 05:56:31;;;;;;;0.50;0.30;;;;;;;11.20;78.93;101731.00;5031216;28;20129;-75
2023/09/03 05:59:04;;;;;;;0.25;0.20;;;;;;;11.27;78.88;101739.69;5029614;28;20037;-76
2023/09/03 06:01:32;;;;;;;0.50;0.35;;;;;;;11.32;79.18;101726.56;5033591;28;20060;-74
2023/09/03 06:04:02;;;;;;;0.63;0.20;;;;;;;11.34;79.06;101728.31;5035274;28;20085;-75
2023/09/03 06:06:29;;;;;;;1.85;0.63;;;;;;;11.38;79.11;101730.00;5034862;28;20061;-75
2023/09/03 06:08:56;;;;;;;1.77;0.20;;;;;;;11.41;79.26;101745.72;5034711;28;20049;-74
2023/09/03 06:11:23;;;;;;;0.20;0.17;;;;;;;11.31;79.65;101728.31;5036570;28;20049;-74
2023/09/03 06:13:50;;;;;;;1.35;0.25;;;;;;;11.48;79.50;101742.16;5033659;28;20054;-74
2023/09/03 06:16:17;;;;;;;0.75;0.30;;;;;;;11.53;79.73;101738.66;5034080;28;20052;-75
2023/09/03 06:18:45;;;;;;;0.30;0.20;;;;;;;11.56;79.57;101738.63;5032997;28;20698;-74
2023/09/03 06:21:12;;;;;;;0.10;0.10;;;;;;;11.60;79.76;101741.19;5031407;28;20052;-73
2023/09/03 06:23:42;;;;;;;0.40;0.17;;;;;;;11.56;79.80;101731.66;5033333;28;20053;-74
2023/09/03 06:26:09;;;;;;;0.20;0.20;;;;;;;11.67;79.66;101742.03;5035093;28;20045;-75
2023/09/03 06:28:37;;;;;;;1.90;0.20;;;;;;;11.68;79.50;101736.78;5033051;28;20131;-75
2023/09/03 06:31:03;;;;;;;0.20;0.10;;;;;;;11.76;79.75;101739.34;5033503;28;20051;-76
2023/09/03 06:33:30;;;;;;;0.15;0.10;;;;;;;11.80;79.85;101733.19;5030198;28;20482;-75
2023/09/03 06:35:59;;;;;;;0.20;0.20;;;;;;;11.83;79.84;101741.03;5025870;28;20401;-76
2023/09/03 06:38:25;;;;;;;0.60;0.20;;;;;;;11.88;79.90;101751.50;5035036;28;20517;-76
2023/09/03 06:40:52;;;;;;;0.75;0.20;;;;;;;11.93;80.04;101758.44;5032629;28;20053;-76
2023/09/03 06:43:19;;;;;;;0.20;0.10;;;;;;;11.96;79.88;101754.06;5040082;28;20041;-75
2023/09/03 06:45:46;;;;;;;2.17;0.13;;;;;;;12.01;79.63;101754.88;5033511;28;20330;-75
2023/09/03 06:48:13;;;;;;;0.10;0.10;;;;;;;12.05;79.81;101743.50;5034282;28;20037;-76
2023/09/03 06:50:41;;;;;;;2.05;0.20;;;;;;;12.10;79.83;101741.72;5032378;28;20059;-75
2023/09/03 06:53:10;;;;;;;3.22;0.20;;;;;;;12.15;79.61;101755.59;5041883;28;20179;-75
2023/09/03 06:55:37;;;;;;;0.57;0.10;;;;;;;12.19;79.51;101759.97;5035569;28;20127;-74
2023/09/03 06:58:05;;;;;;;0.30;0.10;;;;;;;12.24;79.66;101767.75;5035305;28;20120;-75
2023/09/03 07:00:34;;;;;;;1.30;0.10;;;;;;;12.28;79.49;101772.97;5035370;28;20565;-75
2023/09/03 07:03:01;;;;;;;0.25;0.20;;;;;;;12.34;79.62;101765.03;5035490;28;20049;-75
2023/09/03 07:05:28;;;;;;;0.50;0.20;;;;;;;12.41;79.49;101764.97;5034067;28;20494;-75
2023/09/03 07:07:55;;;;;;;0.52;0.20;;;;;;;12.48;79.59;101758.78;5034258;28;20056;-75
2023/09/03 07:10:23;;;;;;;1.83;0.20;;;;;;;12.54;79.49;101763.97;5031547;28;20045;-76
2023/09/03 07:12:50;;;;;;;1.20;0.10;;;;;;;12.59;79.36;101760.41;5031718;28;20076;-75
2023/09/03 07:15:17;;;;;;;0.20;0.20;;;;;;;12.67;79.21;101769.97;5032435;28;20410;-76
2023/09/03 07:17:44;;;;;;;1.55;0.10;;;;;;;12.73;79.21;101768.13;5038333;28;20052;-75
2023/09/03 07:20:11;;;;;;;2.08;0.10;;;;;;;12.80;79.18;101761.91;5036990;28;20852;-76
2023/09/03 07:22:38;;;;;;;0.70;0.17;;;;;;;12.89;79.04;101757.44;5041369;28;20053;-82
2023/09/03 07:25:06;;;;;;;0.10;0.10;;;;;;;12.96;78.89;101749.50;5051072;28;20748;-81
2023/09/03 07:27:38;;;;;;;2.20;0.10;;;;;;;13.00;78.76;101747.69;5044511;28;20049;-81
2023/09/03 07:30:06;;;;;;;0.52;0.10;;;;;;;13.13;78.26;101757.13;5050114;28;20153;-81
2023/09/03 07:32:33;;;;;;;0.80;0.05;;;;;;;13.23;78.17;101768.38;5028105;28;20049;-82
2023/09/03 07:35:00;;;;;;;2.70;0.10;;;;;;;13.13;78.12;101735.28;5038960;28;20041;-78
2023/09/03 07:37:27;;;;;;;0.17;0.10;;;;;;;13.42;77.49;101764.63;5039671;28;20498;-80
2023/09/03 07:39:54;;;;;;;0.77;0.10;;;;;;;13.47;77.30;101761.94;5046201;28;20041;-80
2023/09/03 07:42:21;;;;;;;0.10;0.10;;;;;;;13.65;77.41;101773.94;5048953;28;20049;-79
2023/09/03 07:44:49;;;;;;;0.10;0.10;;;;;;;13.69;77.10;101762.50;5042099;28;20053;-80
2023/09/03 07:47:16;;;;;;;0.30;0.20;;;;;;;13.89;76.89;101780.56;5038398;28;20045;-80
2023/09/03 07:49:43;;;;;;;0.75;0.10;;;;;;;13.90;76.54;101770.03;5044119;28;20045;-80
2023/09/03 07:52:11;;;;;;;0.22;0.10;;;;;;;14.15;76.14;101788.00;5042614;28;20719;-80
2023/09/03 07:54:39;;;;;;;0.13;0.00;;;;;;;14.28;76.28;101789.50;5045731;28;20076;-80
2023/09/03 07:57:06;;;;;;;0.00;0.00;;;;;;;14.41;75.65;101800.69;5041430;28;20046;-80
2023/09/03 07:59:34;;;;;;;0.77;0.10;;;;;;;14.54;75.59;101803.97;5042246;28;20056;-80
2023/09/03 08:02:03;;;;;;;0.00;0.00;;;;;;;14.66;75.36;101802.88;5049256;28;20052;-79
2023/09/03 08:04:30;;;;;;;0.00;0.00;;;;;;;14.80;74.86;101811.41;5039946;28;20060;-78
2023/09/03 08:06:57;;;;;;;0.70;0.05;;;;;;;14.92;75.02;101815.56;5044581;28;20053;-78
2023/09/03 08:09:24;;;;;;;0.32;0.00;;;;;;;15.06;74.42;101813.50;5035240;28;20060;-79
2023/09/03 08:11:51;;;;;;;0.10;0.10;;;;;;;15.16;73.65;101812.41;5037114;28;20054;-79
2023/09/03 08:14:18;;;;;;;0.73;0.10;;;;;;;15.27;72.98;101817.44;5034452;28;20057;-78
2023/09/03 08:16:45;;;;;;;0.10;0.00;;;;;;;15.38;72.99;101819.84;5047404;28;20041;-78
2023/09/03 08:19:13;;;;;;;0.25;0.20;;;;;;;15.48;72.56;101826.63;5041981;28;20053;-78
2023/09/03 08:21:41;;;;;;;2.15;0.10;;;;;;;15.56;72.43;101822.06;5035633;28;20405;-78
2023/09/03 08:24:09;;;;;;;0.40;0.10;;;;;;;15.60;72.24;101805.31;5038833;28;20045;-79
2023/09/03 08:26:36;;;;;;;0.70;0.10;;;;;;;15.81;71.70;101826.81;5035054;28;20125;-79
2023/09/03 08:29:03;;;;;;;1.13;0.00;;;;;;;15.90;71.39;101832.72;5041024;28;20045;-78
2023/09/03 08:31:30;;;;;;;0.13;0.10;;;;;;;16.01;71.31;101845.66;5034531;28;20087;-78
2023/09/03 08:33:57;;;;;;;3.22;0.10;;;;;;;16.08;70.51;101841.09;5041278;28;20047;-80
2023/09/03 08:36:25;;;;;;;0.10;0.00;;;;;;;16.19;70.20;101847.84;5044958;28;20048;-80
2023/09/03 08:38:53;;;;;;;0.10;0.10;;;;;;;16.26;70.18;101845.91;5037684;28;20482;-80
2023/09/03 08:41:23;;;;;;;0.55;0.10;;;;;;;16.29;69.43;101837.94;5038563;28;20057;-81
2023/09/03 08:43:54;;;;;;;0.10;0.05;;;;;;;16.38;68.83;101844.75;5039794;28;20051;-80
2023/09/03 08:46:25;;;;;;;0.10;0.10;;;;;;;16.42;68.60;101839.34;5027855;28;20056;-79
2023/09/03 08:48:54;;;;;;;0.10;0.10;;;;;;;16.43;68.00;101829.66;5034899;28;20044;-77
2023/09/03 08:51:22;;;;;;;0.10;0.10;;;;;;;16.57;67.56;101842.50;5038406;28;20048;-77
2023/09/03 08:53:52;;;;;;;0.15;0.10;;;;;;;16.63;66.92;101844.97;5040080;28;20045;-77
2023/09/03 08:56:19;;;;;;;1.75;0.00;;;;;;;16.67;67.02;101838.69;5035752;28;20054;-78
2023/09/03 08:58:46;;;;;;;3.40;0.10;;;;;;;16.70;66.91;101833.34;5041649;28;20044;-81
2023/09/03 09:01:54;;;;;;;36.42;1.58;;;;;;;16.77;66.38;101829.66;5061822;27;20392;-83
2023/09/03 09:04:22;;;;;;;0.35;0.10;;;;;;;16.86;66.31;101833.81;5038729;28;20056;-78
2023/09/03 09:06:51;;;;;;;14.38;1.65;;;;;;;16.95;66.59;101830.06;5042425;28;20099;-82
2023/09/03 09:09:19;;;;;;;0.13;0.10;;;;;;;17.02;66.09;101829.00;5042527;28;20057;-78
2023/09/03 09:11:57;;;;;;;0.10;0.00;;;;;;;17.06;65.83;101826.19;5036986;28;20041;-77
2023/09/03 09:14:31;;;;;;;1.75;0.10;;;;;;;17.02;65.51;101816.66;5034527;28;20095;-74
2023/09/03 09:16:59;;;;;;;0.10;0.10;;;;;;;17.09;65.21;101827.88;5032207;28;20056;-74
2023/09/03 09:19:26;;;;;;;0.82;0.10;;;;;;;17.09;64.90;101826.09;5031164;28;20426;-74
2023/09/03 09:21:53;;;;;;;1.63;0.10;;;;;;;17.10;64.83;101824.31;5027181;28;20059;-75
2023/09/03 09:24:20;;;;;;;0.80;0.00;;;;;;;17.11;65.01;101818.16;5035387;28;20049;-74
2023/09/03 09:26:47;;;;;;;0.32;0.10;;;;;;;17.10;64.61;101816.41;5032855;28;20692;-75
2023/09/03 09:29:14;;;;;;;0.15;0.10;;;;;;;17.14;64.58;101822.50;5033767;28;20045;-74
2023/09/03 09:31:41;;;;;;;0.65;0.10;;;;;;;17.16;64.29;101831.22;5034024;28;20726;-74
2023/09/03 09:34:14;;;;;;;0.10;0.10;;;;;;;17.17;64.27;101819.75;5034419;28;20049;-75
2023/09/03 09:36:54;;;;;;;0.10;0.10;;;;;;;17.22;64.15;101821.34;5028221;28;20418;-74
2023/09/03 09:39:20;;;;;;;0.30;0.10;;;;;;;17.22;63.82;101826.63;5015907;28;20053;-74
2023/09/03 09:41:48;;;;;;;0.43;0.10;;;;;;;17.25;63.86;101825.69;5017316;28;20435;-74
2023/09/03 09:44:14;;;;;;;2.55;0.10;;;;;;;17.28;64.49;101831.72;5010355;28;20060;-76
2023/09/03 09:46:42;;;;;;;0.20;0.10;;;;;;;17.33;63.58;101836.00;5017452;28;20514;-75
2023/09/03 09:49:10;;;;;;;0.25;0.10;;;;;;;17.36;63.72;101839.44;5018068;28;20766;-75
2023/09/03 09:51:38;;;;;;;2.08;0.10;;;;;;;17.40;63.60;101834.91;5013208;28;20561;-75
2023/09/03 09:54:05;;;;;;;0.10;0.10;;;;;;;17.37;62.13;101835.88;5016143;28;20049;-75
2023/09/03 09:56:34;;;;;;;1.17;0.10;;;;;;;17.43;61.95;101845.38;5013785;28;20050;-75
2023/09/03 09:59:02;;;;;;;2.47;0.15;;;;;;;17.46;62.33;101847.94;5017908;28;20041;-76
2023/09/03 10:01:43;;;;;;;1.55;0.00;;;;;;;17.48;62.26;101844.34;5016870;28;20085;-75
2023/09/03 10:04:10;;;;;;;0.10;0.10;;;;;;;17.46;62.27;101837.38;5013479;28;20054;-75
2023/09/03 10:06:40;;;;;;;1.55;0.00;;;;;;;17.49;62.06;101834.63;5014886;28;20498;-75
2023/09/03 10:09:08;;;;;;;0.57;0.10;;;;;;;17.50;61.74;101844.28;5012004;28;20046;-76
2023/09/03 10:11:35;;;;;;;2.45;0.10;;;;;;;17.51;61.95;101853.94;5012093;28;20057;-76
2023/09/03 10:14:02;;;;;;;0.20;0.00;;;;;;;17.52;61.33;101838.03;5000862;28;20045;-75
2023/09/03 10:16:31;;;;;;;0.10;0.10;;;;;;;17.53;61.35;101837.16;5003470;28;20065;-75
2023/09/03 10:19:02;;;;;;;0.47;0.00;;;;;;;17.53;61.82;101837.16;5001721;28;20408;-76
2023/09/03 10:21:31;;;;;;;0.10;0.00;;;;;;;17.54;61.04;101838.88;5001210;28;20053;-75
2023/09/03 10:24:03;;;;;;;0.68;0.10;;;;;;;17.55;61.23;101842.38;5000951;28;20066;-74
2023/09/03 10:26:38;;;;;;;0.30;0.05;;;;;;;17.57;61.15;101837.91;5001244;28;20057;-74
2023/09/03 10:29:08;;;;;;;2.65;0.00;;;;;;;17.58;61.80;101844.91;5002579;28;20050;-76
2023/09/03 10:31:37;;;;;;;0.00;0.00;;;;;;;17.59;62.05;101841.38;5001411;28;20049;-75
2023/09/03 10:34:10;;;;;;;1.85;0.63;;;;;;;17.60;61.99;101848.38;5003181;28;20045;-75
2023/09/03 10:36:37;;;;;;;1.00;0.03;;;;;;;17.61;62.21;101855.38;5001457;28;20058;-75
2023/09/03 10:39:22;;;;;;;1.02;0.10;;;;;;;17.63;61.92;101856.22;5001411;28;20467;-75
2023/09/03 10:41:49;;;;;;;0.00;0.00;;;;;;;17.62;61.90;101862.41;4999490;28;20054;-75
2023/09/03 10:44:16;;;;;;;0.10;0.03;;;;;;;17.65;61.73;101851.75;4997171;28;20049;-75
2023/09/03 10:47:00;;;;;;;0.55;0.10;;;;;;;17.69;61.89;101852.50;5001114;28;20051;-74
2023/09/03 10:49:41;;;;;;;1.40;0.00;;;;;;;17.62;61.99;101838.63;5001564;28;20120;-74
2023/09/03 10:52:34;;;;;;;0.10;0.00;;;;;;;17.73;62.14;101865.59;4997608;28;20046;-74
2023/09/03 10:55:14;;;;;;;0.38;0.10;;;;;;;17.76;61.92;101860.22;5003172;28;20137;-77
2023/09/03 10:57:41;;;;;;;1.88;0.00;;;;;;;17.77;61.79;101867.22;5006020;28;20058;-77
2023/09/03 11:00:27;;;;;;;0.08;0.08;;;;;;;17.79;61.42;101853.13;5007653;28;20066;-77
2023/09/03 11:03:17;;;;;;;0.25;0.00;;;;;;;17.82;61.71;101860.97;5003530;28;20126;-80
2023/09/03 11:06:18;;;;;;;0.20;0.10;;;;;;;17.84;61.81;101872.34;5003518;28;20547;-77
2023/09/03 11:08:45;;;;;;;0.00;0.00;;;;;;;17.85;61.79;101877.59;5004310;28;20046;-76
2023/09/03 11:11:19;;;;;;;0.00;0.00;;;;;;;17.85;61.06;101877.59;5005160;28;20049;-78
2023/09/03 11:13:54;;;;;;;0.10;0.10;;;;;;;17.83;61.53;101876.75;5002897;28;20100;-77
2023/09/03 11:16:27;;;;;;;0.00;0.00;;;;;;;17.88;61.47;101884.56;4999172;28;20066;-77
2023/09/03 11:18:54;;;;;;;0.13;0.08;;;;;;;17.90;61.62;101888.91;4996575;28;20475;-76
2023/09/03 11:21:24;;;;;;;0.10;0.03;;;;;;;17.91;61.33;101882.69;5002247;28;20042;-77
2023/09/03 11:24:01;;;;;;;1.42;0.10;;;;;;;17.91;61.53;101874.75;4995875;28;20050;-77
2023/09/03 11:26:30;;;;;;;0.10;0.10;;;;;;;17.93;61.21;101886.16;4997628;28;20054;-77
2023/09/03 11:28:57;;;;;;;0.00;0.00;;;;;;;17.94;61.46;101879.94;5002968;28;20067;-77
2023/09/03 11:31:24;;;;;;;0.03;0.00;;;;;;;17.95;61.42;101876.38;4997075;28;20050;-77
2023/09/03 11:33:51;;;;;;;0.30;0.10;;;;;;;17.95;61.47;101881.66;5001683;28;20046;-74
2023/09/03 11:36:21;;;;;;;2.25;0.10;;;;;;;17.98;61.24;101880.69;4997285;28;20092;-75